Aérodrome :
LOGIN :

S'inscrire | Disclaimer

   EN    FR    IT 

 










Légende :    VFR   VFR Marginal   IFR   IFR Intensif   IFR Très Intensif
Visi : 
Plafond : 
>= 8 km
>= 3000ft
5 à 8 km
1000 à 3000 ft
1500m à 5 km
500 à 1000 ft
800 à 1500m
200 à 500 ft
< 800m
< 200 ft
Symboles :   Orages  Brouillard  Fortes neiges  Fortes précipitations  Vent > 20 kt
SIGMETs :   Divers  Orages  Givrage  Turbulence  Onde Orograph.  Cendres Volcan.







- Altitude de l'aérodrome : 1910 ft
- Code IATA : RDZ
- Voir les cartes d'approche


LFCR - Rodez

DERNIER METAR :
  • 221100Z AUTO 30005KT 230V010 CAVOK 19/05 Q1025 NOSIG

METARs EXPIRÉS :
  • 221030Z AUTO 29004KT 220V320 CAVOK 17/07 Q1025 NOSIG
  • 221000Z AUTO 32004KT 220V030 CAVOK 17/08 Q1025 NOSIG
  • 220930Z AUTO 30004KT 240V010 CAVOK 16/08 Q1025 NOSIG
  • 220900Z AUTO 33004KT 220V020 CAVOK 14/09 Q1025 NOSIG
  • 220830Z AUTO VRB02KT 9999 FEW005 12/10 Q1025 NOSIG
  • 220800Z AUTO 36003KT 9999 BKN003 11/11 Q1025 BECMG NSC

TAF AMD TAF LFCR
Valide du 22 à 07h jusqu'au 23 à 06h UTC


220715Z 2207/2306 27006KT 9999 OVC004
TEMPO 2207/2208 0800 BCFG VV///
BECMG 2208/2210 CAVOK
Pas de NOTAMs connus pour ce terrain.



MET'MAP, la Météo Aéronautique d'un coup d'oeil ! - Copyright ORBIFLY Décembre 2007 - Disclaimer

ORBIFLY MET'MAP TEAM :

Programmation & Développement : Alexandra Zaïnal
Conception & Développement : Baudouin d'Aumeries
Co-Programmation & Développement : Marc-Olivier Méhu
Soutien technique & logistique : Manuel Goepfert

Contact : metmap@orbifly.com




SOURCES & CREDITS :

   NOAA